createdAt,value
2019-02-08T00:01:48.041Z,3.20
2019-02-08T00:04:18.716Z,2.70
2019-02-08T00:06:49.033Z,3.40
2019-02-08T00:09:19.307Z,3.47
2019-02-08T00:11:50.164Z,2.90
2019-02-08T00:14:20.952Z,3.43
2019-02-08T00:16:51.327Z,2.93
2019-02-08T00:19:21.692Z,3.17
2019-02-08T00:21:52.028Z,3.10
2019-02-08T00:24:22.442Z,3.13
2019-02-08T00:26:53.359Z,3.33
2019-02-08T00:29:23.728Z,3.07
2019-02-08T00:31:56.113Z,3.20
2019-02-08T00:34:26.751Z,3.37
2019-02-08T00:36:57.038Z,3.10
2019-02-08T00:39:27.662Z,3.90
2019-02-08T00:41:57.988Z,3.10
2019-02-08T00:44:28.370Z,3.00
2019-02-08T00:46:58.722Z,3.40
2019-02-08T00:49:29.385Z,2.93
2019-02-08T00:51:59.732Z,3.23
2019-02-08T00:54:30.654Z,3.30
2019-02-08T00:57:00.971Z,3.27
2019-02-08T00:59:31.357Z,3.67
2019-02-08T01:02:01.989Z,3.13
2019-02-08T01:04:32.349Z,3.93
2019-02-08T01:07:02.663Z,3.10
2019-02-08T01:09:34.152Z,3.20
2019-02-08T01:12:05.108Z,3.83
2019-02-08T01:14:35.869Z,3.50
2019-02-08T01:17:06.503Z,3.03
2019-02-08T01:19:37.157Z,2.90
2019-02-08T01:22:07.589Z,3.57
2019-02-08T01:24:38.196Z,3.13
2019-02-08T01:27:08.557Z,2.70
2019-02-08T01:29:38.863Z,3.07
2019-02-08T01:32:09.147Z,3.13
2019-02-08T01:34:39.503Z,2.93
2019-02-08T01:37:09.857Z,3.17
2019-02-08T01:39:40.563Z,3.03
2019-02-08T01:42:10.932Z,3.00
2019-02-08T01:44:41.250Z,3.30
2019-02-08T01:47:11.581Z,3.33
2019-02-08T01:49:41.922Z,3.50
2019-02-08T01:52:12.261Z,3.30
2019-02-08T01:54:43.259Z,2.83
2019-02-08T01:57:13.647Z,3.83
2019-02-08T01:59:43.963Z,3.57
2019-02-08T02:02:14.262Z,3.30
2019-02-08T02:04:44.614Z,3.17
2019-02-08T02:07:15.003Z,3.73
2019-02-08T02:09:45.339Z,3.33
2019-02-08T02:12:15.686Z,3.60
2019-02-08T02:14:45.990Z,3.70
2019-02-08T02:17:16.619Z,3.57
2019-02-08T02:19:47.380Z,3.70
2019-02-08T02:22:17.738Z,3.47
2019-02-08T02:24:48.265Z,4.17
2019-02-08T02:27:18.698Z,3.90
2019-02-08T02:29:49.019Z,4.13
2019-02-08T02:32:19.339Z,3.70
2019-02-08T02:34:49.871Z,3.30
2019-02-08T02:37:20.241Z,3.53
2019-02-08T02:39:51.280Z,3.33
2019-02-08T02:42:21.620Z,3.67
2019-02-08T02:44:51.963Z,3.73
2019-02-08T02:47:22.331Z,3.60
2019-02-08T02:49:52.970Z,3.63
2019-02-08T02:52:23.291Z,4.17
2019-02-08T02:54:53.582Z,3.77
2019-02-08T02:57:23.914Z,3.77
2019-02-08T02:59:54.248Z,4.07
2019-02-08T03:02:24.608Z,4.00
2019-02-08T03:04:55.591Z,4.60
2019-02-08T03:07:25.983Z,4.30
2019-02-08T03:09:56.400Z,4.07
2019-02-08T03:12:27.054Z,4.07
2019-02-08T03:14:57.403Z,4.47
2019-02-08T03:17:27.698Z,3.80
2019-02-08T03:19:58.095Z,4.30
2019-02-08T03:22:28.684Z,4.00
2019-02-08T03:24:59.727Z,3.97
2019-02-08T03:27:30.063Z,3.63
2019-02-08T03:30:01.028Z,3.80
2019-02-08T03:32:50.466Z,4.40
2019-02-08T03:35:23.464Z,3.40
2019-02-08T03:37:53.879Z,3.87
2019-02-08T03:40:26.615Z,4.00
2019-02-08T03:42:57.271Z,3.73
2019-02-08T03:45:31.334Z,3.50
2019-02-08T03:48:02.106Z,3.20
2019-02-08T03:50:32.439Z,3.77
2019-02-08T03:53:02.827Z,3.13
2019-02-08T03:55:33.131Z,3.17
2019-02-08T03:58:03.702Z,2.80
2019-02-08T04:00:42.735Z,3.03
2019-02-08T04:03:13.068Z,2.80
2019-02-08T04:05:43.385Z,3.50
2019-02-08T04:08:13.701Z,3.27
2019-02-08T04:10:44.304Z,3.53
2019-02-08T04:13:15.326Z,3.97
2019-02-08T04:15:45.648Z,3.40
2019-02-08T04:18:15.994Z,4.17
2019-02-08T04:20:46.387Z,3.87
2019-02-08T04:23:16.725Z,3.63
2019-02-08T04:25:47.688Z,3.60
2019-02-08T04:28:18.059Z,4.27
2019-02-08T04:30:48.668Z,4.03
2019-02-08T04:33:19.324Z,4.43
2019-02-08T04:35:49.681Z,4.67
2019-02-08T04:38:20.434Z,5.03
2019-02-08T04:40:50.811Z,4.90
2019-02-08T04:43:21.121Z,4.80
2019-02-08T04:45:51.738Z,5.40
2019-02-08T04:48:22.080Z,6.40
2019-02-08T04:50:52.408Z,6.40
2019-02-08T04:53:22.756Z,5.47
2019-02-08T04:55:53.053Z,6.40
2019-02-08T04:58:23.402Z,5.60
2019-02-08T05:00:53.728Z,5.30
2019-02-08T05:03:24.072Z,5.70
2019-02-08T05:06:06.438Z,5.13
2019-02-08T05:08:37.145Z,5.33
2019-02-08T05:11:07.520Z,5.30
2019-02-08T05:13:38.470Z,5.60
2019-02-08T05:16:09.084Z,4.70
2019-02-08T05:18:39.519Z,5.13
2019-02-08T05:21:10.334Z,4.97
2019-02-08T05:23:41.063Z,5.00
2019-02-08T05:26:11.468Z,6.07
2019-02-08T05:28:41.802Z,5.70
2019-02-08T05:31:12.152Z,5.97
2019-02-08T05:33:42.473Z,6.50
2019-02-08T05:36:12.817Z,5.33
2019-02-08T05:38:43.377Z,5.57
2019-02-08T05:41:13.812Z,5.40
2019-02-08T05:43:44.115Z,5.33
2019-02-08T05:46:14.413Z,4.90
2019-02-08T05:48:45.024Z,4.90
2019-02-08T05:51:15.515Z,5.63
2019-02-08T05:53:46.174Z,4.53
2019-02-08T05:56:16.491Z,4.70
2019-02-08T05:58:46.834Z,5.00
2019-02-08T06:01:17.240Z,4.87
2019-02-08T06:03:48.003Z,4.63
2019-02-08T06:06:18.409Z,5.17
2019-02-08T06:08:49.085Z,5.90
2019-02-08T06:11:19.402Z,5.17
2019-02-08T06:13:49.688Z,4.77
2019-02-08T06:16:20.779Z,4.17
2019-02-08T06:18:51.259Z,4.33
2019-02-08T06:21:21.579Z,4.53
2019-02-08T06:23:52.233Z,5.23
2019-02-08T06:26:31.562Z,4.87
2019-02-08T06:29:02.299Z,4.83
2019-02-08T06:31:32.643Z,5.13
2019-02-08T06:34:03.049Z,5.97
2019-02-08T06:36:33.432Z,5.23
2019-02-08T06:39:10.754Z,6.03
2019-02-08T06:41:41.126Z,6.30
2019-02-08T06:44:11.764Z,5.80
2019-02-08T06:46:42.430Z,6.73
2019-02-08T06:49:12.769Z,6.57
2019-02-08T06:51:43.133Z,6.90
2019-02-08T06:54:13.437Z,6.80
2019-02-08T06:57:08.938Z,6.90
2019-02-08T07:00:01.061Z,7.30
2019-02-08T07:02:53.247Z,8.20
2019-02-08T07:05:57.705Z,8.80
2019-02-08T07:08:43.860Z,8.90
2019-02-08T07:11:48.280Z,9.50
2019-02-08T07:14:42.036Z,9.90
2019-02-08T07:17:35.190Z,10.60
2019-02-08T07:20:24.851Z,10.53
2019-02-08T07:23:12.962Z,11.90
2019-02-08T07:26:01.162Z,11.57
2019-02-08T07:29:02.792Z,12.27
2019-02-08T07:32:07.796Z,12.87
2019-02-08T07:35:15.340Z,13.60
2019-02-08T07:37:54.185Z,12.60
2019-02-08T07:40:56.688Z,12.40
2019-02-08T07:43:38.351Z,12.00
2019-02-08T07:46:29.438Z,11.80
2019-02-08T07:49:14.063Z,10.70
2019-02-08T07:52:09.404Z,11.80
2019-02-08T07:54:55.749Z,10.83
2019-02-08T07:57:41.980Z,11.30
2019-02-08T08:00:35.449Z,11.53
2019-02-08T08:03:24.660Z,10.73
2019-02-08T08:06:14.393Z,10.13
2019-02-08T08:08:52.739Z,9.17
2019-02-08T08:11:38.264Z,10.13
2019-02-08T08:14:25.474Z,10.20
2019-02-08T08:17:10.065Z,9.10
2019-02-08T08:19:58.995Z,9.40
2019-02-08T08:22:48.362Z,10.20
2019-02-08T08:25:33.908Z,9.90
2019-02-08T08:28:35.116Z,9.60
2019-02-08T08:31:19.546Z,9.83
2019-02-08T08:34:07.543Z,9.67
2019-02-08T08:37:37.670Z,9.67
2019-02-08T08:41:12.816Z,10.87
2019-02-08T08:44:43.707Z,9.73
2019-02-08T08:48:14.810Z,10.37
2019-02-08T08:51:22.378Z,10.00
2019-02-08T08:55:00.896Z,9.90
2019-02-08T08:58:40.938Z,10.23
2019-02-08T09:02:18.123Z,9.07
2019-02-08T09:05:28.887Z,8.00
2019-02-08T09:08:43.171Z,7.43
2019-02-08T09:12:24.191Z,6.13
2019-02-08T09:16:09.320Z,5.40
2019-02-08T09:19:50.971Z,4.83
2019-02-08T09:23:15.088Z,4.63
2019-02-08T09:26:38.459Z,4.20
2019-02-08T09:29:57.951Z,4.00
2019-02-08T09:33:50.510Z,4.00
2019-02-08T09:37:39.203Z,3.53
2019-02-08T09:41:07.661Z,3.40
2019-02-08T09:44:48.205Z,3.07
2019-02-08T09:48:12.888Z,3.13
2019-02-08T09:52:06.280Z,2.40
2019-02-08T09:55:21.343Z,2.80
2019-02-08T09:58:42.290Z,2.40
2019-02-08T10:02:13.138Z,3.27
2019-02-08T10:05:25.236Z,2.73
2019-02-08T10:09:05.150Z,3.10
2019-02-08T10:12:44.890Z,2.50
2019-02-08T10:16:48.618Z,2.70
2019-02-08T10:20:39.318Z,2.40
2019-02-08T10:24:05.502Z,2.27
2019-02-08T10:27:51.887Z,2.47
2019-02-08T10:31:24.308Z,2.50
2019-02-08T10:34:48.413Z,2.23
2019-02-08T10:38:12.526Z,2.90
2019-02-08T10:41:47.635Z,2.37
2019-02-08T10:45:51.382Z,2.20
2019-02-08T10:49:13.408Z,2.60
2019-02-08T10:52:32.198Z,2.30
2019-02-08T10:56:14.770Z,3.23
2019-02-08T10:59:49.589Z,2.00
2019-02-08T11:03:30.905Z,2.53
2019-02-08T11:07:11.223Z,2.47
2019-02-08T11:10:40.242Z,1.67
2019-02-08T11:14:15.880Z,2.10
2019-02-08T11:18:21.165Z,1.93
2019-02-08T11:20:51.571Z,1.90
2019-02-08T11:23:21.920Z,29.93
2019-02-08T11:25:52.294Z,2.20
2019-02-08T11:28:23.730Z,2.43
2019-02-08T11:30:54.078Z,1.60
2019-02-08T11:33:24.454Z,1.50
2019-02-08T11:35:54.804Z,1.60
2019-02-08T11:38:25.195Z,1.57
2019-02-08T11:40:55.591Z,1.23
2019-02-08T11:43:30.192Z,1.60
2019-02-08T11:46:00.625Z,1.30
2019-02-08T11:48:31.222Z,1.47
2019-02-08T11:51:01.825Z,1.30
2019-02-08T11:53:32.211Z,1.40
2019-02-08T11:56:02.581Z,1.40
2019-02-08T11:58:33.270Z,1.40
2019-02-08T12:01:03.987Z,1.40
2019-02-08T12:03:34.285Z,1.40
2019-02-08T12:06:05.018Z,1.30
2019-02-08T12:08:35.391Z,1.43
2019-02-08T12:11:05.988Z,1.37
2019-02-08T12:13:36.599Z,1.27
2019-02-08T12:16:07.268Z,1.30
2019-02-08T12:18:37.880Z,1.53
2019-02-08T12:21:08.284Z,1.40
2019-02-08T12:23:38.619Z,1.00
2019-02-08T12:26:08.941Z,1.50
2019-02-08T12:28:49.947Z,1.30
2019-02-08T12:31:20.564Z,1.20
2019-02-08T12:33:51.278Z,1.30
2019-02-08T12:36:30.937Z,1.10
2019-02-08T12:39:01.810Z,1.00
2019-02-08T12:41:32.482Z,1.27
2019-02-08T12:44:02.918Z,1.30
2019-02-08T12:46:33.539Z,1.13
2019-02-08T12:49:03.902Z,1.10
2019-02-08T12:51:34.480Z,1.20
2019-02-08T12:54:04.822Z,1.23
2019-02-08T12:56:35.400Z,1.30
2019-02-08T12:59:06.253Z,1.40
2019-02-08T13:01:37.699Z,1.40
2019-02-08T13:04:08.558Z,1.40
2019-02-08T13:06:38.903Z,1.33
2019-02-08T13:09:12.257Z,1.67
2019-02-08T13:11:42.643Z,1.50
2019-02-08T13:14:13.068Z,1.27
2019-02-08T13:16:43.777Z,1.70
2019-02-08T13:19:14.089Z,1.20
2019-02-08T13:21:44.742Z,1.30
2019-02-08T13:24:16.620Z,1.40
2019-02-08T13:26:52.775Z,1.50
2019-02-08T13:29:19.339Z,1.40
2019-02-08T13:31:49.995Z,1.30
2019-02-08T13:34:20.479Z,1.20
2019-02-08T13:36:50.848Z,1.40
2019-02-08T13:39:21.141Z,1.57
2019-02-08T13:41:51.512Z,1.30
2019-02-08T13:44:21.899Z,1.60
2019-02-08T13:46:52.311Z,1.50
2019-02-08T13:49:22.660Z,1.30
2019-02-08T13:51:53.316Z,1.20
2019-02-08T13:54:23.722Z,1.10
2019-02-08T13:57:00.532Z,1.40
2019-02-08T13:59:27.592Z,1.50
2019-02-08T14:01:58.200Z,1.60
2019-02-08T14:04:28.909Z,1.30
2019-02-08T14:06:59.571Z,1.23
2019-02-08T14:09:31.171Z,1.10
2019-02-08T14:12:01.537Z,1.13
2019-02-08T14:14:32.134Z,1.40
2019-02-08T14:17:02.460Z,1.23
2019-02-08T14:19:32.821Z,1.50
2019-02-08T14:22:03.145Z,1.43
2019-02-08T14:24:33.614Z,1.00
2019-02-08T14:27:08.629Z,1.33
2019-02-08T14:29:36.028Z,1.30
2019-02-08T14:32:06.683Z,1.20
2019-02-08T14:34:43.498Z,1.10
2019-02-08T14:37:09.485Z,1.10
2019-02-08T14:39:39.813Z,1.00
2019-02-08T14:42:10.249Z,1.10
2019-02-08T14:44:40.857Z,1.07
2019-02-08T14:47:11.776Z,1.10
2019-02-08T14:49:42.121Z,1.17
2019-02-08T14:52:12.710Z,1.00
2019-02-08T14:54:43.095Z,1.10
2019-02-08T14:57:16.659Z,0.97
2019-02-08T14:59:45.891Z,1.30
2019-02-08T15:02:16.320Z,1.07
2019-02-08T15:04:47.107Z,1.03
2019-02-08T15:07:17.636Z,1.30
2019-02-08T15:09:48.287Z,1.10
2019-02-08T15:12:18.616Z,1.00
2019-02-08T15:14:52.171Z,0.87
2019-02-08T15:17:22.541Z,0.97
2019-02-08T15:19:53.029Z,1.10
2019-02-08T15:22:23.910Z,1.00
2019-02-08T15:24:54.864Z,1.10
2019-02-08T15:27:25.287Z,0.80
2019-02-08T15:29:56.558Z,1.00
2019-02-08T15:32:26.950Z,0.90
2019-02-08T15:34:57.543Z,0.90
2019-02-08T15:37:33.122Z,1.00
2019-02-08T15:40:06.067Z,0.73
2019-02-08T15:42:36.422Z,0.80
2019-02-08T15:45:11.777Z,1.00
2019-02-08T15:47:44.446Z,0.97
2019-02-08T15:50:15.876Z,1.00
2019-02-08T15:52:46.217Z,0.97
2019-02-08T15:55:25.489Z,0.93
2019-02-08T15:57:58.040Z,1.10
2019-02-08T16:00:30.739Z,1.20
2019-02-08T16:03:01.531Z,0.93
2019-02-08T16:05:33.125Z,1.30
2019-02-08T16:08:03.518Z,1.17
2019-02-08T16:10:33.834Z,0.97
2019-02-08T16:13:05.047Z,1.00
2019-02-08T16:15:35.462Z,0.93
2019-02-08T16:18:07.437Z,0.80
2019-02-08T16:20:38.439Z,1.63
2019-02-08T16:23:09.037Z,1.20
2019-02-08T16:25:39.460Z,1.13
2019-02-08T16:28:10.126Z,0.90
2019-02-08T16:30:40.902Z,1.10
2019-02-08T16:33:11.344Z,1.10
2019-02-08T16:35:41.654Z,1.10
2019-02-08T16:38:11.976Z,1.10
2019-02-08T16:40:42.342Z,1.30
2019-02-08T16:43:12.686Z,1.30
2019-02-08T16:45:44.031Z,1.50
2019-02-08T16:48:14.849Z,1.10
2019-02-08T16:50:45.632Z,1.20
2019-02-08T16:53:15.994Z,1.40
2019-02-08T16:55:46.688Z,1.30
2019-02-08T16:58:17.029Z,1.20
2019-02-08T17:00:47.363Z,1.47
2019-02-08T17:03:17.737Z,1.30
2019-02-08T17:05:48.122Z,1.60
2019-02-08T17:08:18.816Z,1.70
2019-02-08T17:10:49.128Z,1.13
2019-02-08T17:13:20.047Z,1.77
2019-02-08T17:15:50.460Z,1.57
2019-02-08T17:18:21.093Z,2.83
2019-02-08T17:20:51.985Z,3.23
2019-02-08T17:23:22.637Z,2.67
2019-02-08T17:25:52.996Z,2.10
2019-02-08T17:28:42.698Z,1.83
2019-02-08T17:31:13.019Z,2.70
2019-02-08T17:33:43.667Z,1.70
2019-02-08T17:36:14.281Z,1.30
2019-02-08T17:38:45.314Z,1.97
2019-02-08T17:41:15.688Z,1.57
2019-02-08T17:43:46.043Z,1.53
2019-02-08T17:46:16.711Z,1.90
2019-02-08T17:48:47.056Z,1.73
2019-02-08T17:51:17.397Z,1.50
2019-02-08T17:53:48.027Z,1.40
2019-02-08T17:56:18.778Z,1.50
2019-02-08T17:58:49.112Z,1.80
2019-02-08T18:01:19.409Z,1.80
2019-02-08T18:03:50.022Z,1.60
2019-02-08T18:06:20.298Z,1.50
2019-02-08T18:08:50.656Z,1.70
2019-02-08T18:11:21.400Z,1.80
2019-02-08T18:13:52.040Z,1.43
2019-02-08T18:16:22.649Z,1.30
2019-02-08T18:18:53.252Z,1.93
2019-02-08T18:21:23.963Z,1.67
2019-02-08T18:23:54.520Z,1.70
2019-02-08T18:26:24.879Z,1.40
2019-02-08T18:29:14.584Z,1.60
2019-02-08T18:31:45.618Z,1.40
2019-02-08T18:34:23.117Z,1.27
2019-02-08T18:36:54.090Z,1.40
2019-02-08T18:39:24.416Z,1.33
2019-02-08T18:41:54.819Z,1.53
2019-02-08T18:44:25.553Z,1.07
2019-02-08T18:46:55.851Z,1.73
2019-02-08T18:49:26.494Z,1.77
2019-02-08T18:51:57.190Z,1.40
2019-02-08T18:54:27.515Z,1.70
2019-02-08T18:56:57.851Z,1.53
2019-02-08T18:59:28.601Z,1.20
2019-02-08T19:01:58.953Z,1.73
2019-02-08T19:04:29.304Z,1.43
2019-02-08T19:06:59.629Z,2.13
2019-02-08T19:09:29.985Z,1.50
2019-02-08T19:12:00.353Z,1.87
2019-02-08T19:14:30.958Z,1.70
2019-02-08T19:17:01.380Z,2.23
2019-02-08T19:19:31.972Z,1.90
2019-02-08T19:22:02.320Z,1.93
2019-02-08T19:24:32.944Z,1.67
2019-02-08T19:27:22.667Z,2.30
2019-02-08T19:29:53.232Z,1.90
2019-02-08T19:32:23.623Z,1.60
2019-02-08T19:34:54.234Z,1.83
2019-02-08T19:37:24.602Z,1.47
2019-02-08T19:39:54.922Z,2.20
2019-02-08T19:42:25.362Z,1.80
2019-02-08T19:44:55.690Z,1.90
2019-02-08T19:47:28.083Z,1.80
2019-02-08T19:49:58.718Z,1.77
2019-02-08T19:52:29.406Z,1.80
2019-02-08T19:54:59.761Z,1.87
2019-02-08T19:57:30.072Z,1.70
2019-02-08T20:00:00.427Z,1.80
2019-02-08T20:02:30.808Z,1.90
2019-02-08T20:05:01.190Z,2.50
2019-02-08T20:07:31.562Z,1.90
2019-02-08T20:10:02.279Z,1.70
2019-02-08T20:12:38.825Z,1.90
2019-02-08T20:15:12.489Z,2.13
2019-02-08T20:17:42.838Z,2.07
2019-02-08T20:20:13.151Z,1.70
2019-02-08T20:22:43.806Z,1.70
2019-02-08T20:25:26.918Z,2.00
2019-02-08T20:27:57.715Z,1.70
2019-02-08T20:30:29.085Z,2.00
2019-02-08T20:32:59.536Z,1.60
2019-02-08T20:35:31.027Z,1.80
2019-02-08T20:38:01.759Z,1.97
2019-02-08T20:40:38.164Z,2.13
2019-02-08T20:43:08.618Z,1.60
2019-02-08T20:45:39.992Z,1.93
2019-02-08T20:48:20.055Z,1.50
2019-02-08T20:50:50.721Z,1.50
2019-02-08T20:53:21.601Z,1.60
2019-02-08T20:55:52.989Z,1.80
2019-02-08T20:58:23.481Z,1.80
2019-02-08T21:00:55.312Z,1.63
2019-02-08T21:03:26.229Z,1.97
2019-02-08T21:05:56.536Z,2.30
2019-02-08T21:08:27.133Z,1.87
2019-02-08T21:10:57.925Z,1.90
2019-02-08T21:13:28.253Z,1.90
2019-02-08T21:15:58.570Z,1.73
2019-02-08T21:18:28.886Z,1.70
2019-02-08T21:20:59.186Z,1.40
2019-02-08T21:23:29.517Z,1.53
2019-02-08T21:25:59.894Z,1.77
2019-02-08T21:28:30.221Z,1.63
2019-02-08T21:31:00.541Z,1.50
2019-02-08T21:33:30.891Z,1.57
2019-02-08T21:36:01.228Z,1.67
2019-02-08T21:38:31.627Z,1.80
2019-02-08T21:41:01.931Z,1.87
2019-02-08T21:43:32.675Z,1.90
2019-02-08T21:46:03.410Z,1.97
2019-02-08T21:48:33.775Z,1.90
2019-02-08T21:51:04.094Z,3.97
2019-02-08T21:53:34.434Z,1.93
2019-02-08T21:56:05.130Z,1.60
2019-02-08T21:58:35.522Z,1.67
2019-02-08T22:01:07.735Z,1.50
2019-02-08T22:03:38.141Z,1.73
2019-02-08T22:06:11.234Z,1.70
2019-02-08T22:08:42.156Z,1.47
2019-02-08T22:11:12.646Z,2.17
2019-02-08T22:13:43.941Z,2.07
2019-02-08T22:16:14.788Z,1.50
2019-02-08T22:18:45.081Z,1.40
2019-02-08T22:21:15.662Z,1.77
2019-02-08T22:23:46.374Z,1.70
2019-02-08T22:26:16.722Z,1.70
2019-02-08T22:28:47.063Z,1.70
2019-02-08T22:31:17.405Z,1.60
2019-02-08T22:33:47.971Z,1.43
2019-02-08T22:36:18.615Z,1.30
2019-02-08T22:38:48.894Z,1.40
2019-02-08T22:41:19.483Z,1.50
2019-02-08T22:43:50.183Z,1.57
2019-02-08T22:46:20.515Z,1.27
2019-02-08T22:48:54.888Z,1.47
2019-02-08T22:51:25.258Z,1.43
2019-02-08T22:53:55.612Z,1.60
2019-02-08T22:56:26.243Z,1.20
2019-02-08T22:58:56.810Z,1.50
2019-02-08T23:01:34.007Z,1.77
2019-02-08T23:04:06.699Z,1.50
2019-02-08T23:06:44.435Z,1.23
2019-02-08T23:09:21.035Z,1.37
2019-02-08T23:11:51.465Z,1.30
2019-02-08T23:14:22.234Z,1.63
2019-02-08T23:16:52.617Z,1.50
2019-02-08T23:19:23.185Z,1.50
2019-02-08T23:21:55.175Z,1.67
2019-02-08T23:24:25.961Z,1.90
2019-02-08T23:26:56.534Z,1.60
2019-02-08T23:29:30.263Z,2.00
2019-02-08T23:31:58.997Z,1.80
2019-02-08T23:34:29.385Z,2.17
2019-02-08T23:37:00.058Z,3.97
2019-02-08T23:39:30.354Z,1.67
2019-02-08T23:42:00.985Z,1.90
2019-02-08T23:44:31.579Z,1.70
2019-02-08T23:47:02.170Z,2.00
2019-02-08T23:49:32.968Z,1.90
2019-02-08T23:52:03.331Z,2.00
2019-02-08T23:54:33.644Z,2.13
2019-02-08T23:57:03.949Z,1.97
2019-02-08T23:59:38.153Z,2.00
